Time;durP1;ratioP1;P1;durP2;ratioP2;P2;SDS_P1;SDS_P2;PMS_P1;PMS_P2;Temp;Humidity;BMP_temperature;BMP_pressure;BME280_temperature;BME280_humidity;BME280_pressure;Samples;Min_cycle;Max_cycle;Signal;HPM_P1;HPM_P2
2022/12/09 00:00:30;;;;;;;17.17;12.02;;;3.10;99.90;;;;;;4989749;28;20056;-66
2022/12/09 00:03:16;;;;;;;17.33;12.65;;;3.10;99.90;;;;;;5012084;28;20022;-66
2022/12/09 00:06:23;;;;;;;14.23;10.60;;;3.10;99.90;;;;;;5000500;28;20034;-66
2022/12/09 00:09:12;;;;;;;13.50;10.30;;;3.10;99.90;;;;;;4995216;28;20061;-64
2022/12/09 00:11:58;;;;;;;13.80;9.70;;;3.10;99.90;;;;;;5001283;28;20120;-64
2022/12/09 00:14:44;;;;;;;12.98;9.40;;;3.00;99.90;;;;;;5013027;28;20228;-65
2022/12/09 00:17:30;;;;;;;13.80;10.00;;;2.90;99.90;;;;;;5012434;28;20030;-66
2022/12/09 00:20:16;;;;;;;13.50;10.00;;;3.00;99.90;;;;;;5012982;28;20037;-66
2022/12/09 00:23:02;;;;;;;15.73;10.23;;;3.00;99.90;;;;;;5012526;28;20498;-67
2022/12/09 00:25:48;;;;;;;12.48;9.68;;;3.00;99.90;;;;;;5013943;28;20041;-64
2022/12/09 00:28:34;;;;;;;15.25;9.77;;;3.10;99.90;;;;;;5012230;28;20398;-63
2022/12/09 00:31:25;;;;;;;13.45;9.57;;;3.10;99.90;;;;;;5011126;28;20402;-64
2022/12/09 00:34:12;;;;;;;14.80;10.02;;;3.10;99.90;;;;;;5011837;28;20038;-65
2022/12/09 00:36:58;;;;;;;13.68;10.30;;;3.10;99.90;;;;;;5014571;28;20529;-65
2022/12/09 00:39:44;;;;;;;13.52;9.57;;;3.00;99.90;;;;;;5013020;28;20034;-63
2022/12/09 00:42:30;;;;;;;14.93;10.38;;;3.00;99.90;;;;;;4993301;28;20026;-67
2022/12/09 00:45:16;;;;;;;14.70;11.07;;;3.10;99.90;;;;;;4992832;28;20026;-64
2022/12/09 00:48:02;;;;;;;13.13;10.63;;;3.00;99.90;;;;;;4995213;28;20114;-66
2022/12/09 00:50:48;;;;;;;13.70;10.23;;;3.10;99.90;;;;;;5012444;28;20026;-65
2022/12/09 00:53:34;;;;;;;14.38;10.35;;;3.10;99.90;;;;;;5012660;28;20518;-66
2022/12/09 00:56:21;;;;;;;14.60;10.63;;;3.20;99.90;;;;;;5011853;28;20112;-64
2022/12/09 00:59:07;;;;;;;14.27;10.10;;;3.30;99.90;;;;;;5011727;28;20037;-65
2022/12/09 01:01:53;;;;;;;13.27;9.38;;;3.30;99.90;;;;;;5011507;28;20072;-68
2022/12/09 01:04:40;;;;;;;12.90;9.27;;;3.40;99.90;;;;;;5011610;28;20033;-65
2022/12/09 01:07:26;;;;;;;12.10;9.05;;;3.30;99.90;;;;;;5012007;28;20054;-64
2022/12/09 01:10:11;;;;;;;12.73;9.30;;;3.40;99.90;;;;;;5011011;28;20376;-65
2022/12/09 01:12:57;;;;;;;15.82;10.15;;;3.40;99.90;;;;;;5011627;28;20033;-64
2022/12/09 01:15:43;;;;;;;11.40;8.57;;;3.40;99.90;;;;;;4992884;28;20030;-65
2022/12/09 01:18:29;;;;;;;13.07;8.93;;;3.40;99.90;;;;;;4995496;28;20026;-64
2022/12/09 01:21:15;;;;;;;11.73;7.95;;;3.30;99.90;;;;;;5011067;28;20022;-65
2022/12/09 01:24:09;;;;;;;11.18;8.30;;;3.30;99.90;;;;;;5011585;28;20022;-64
2022/12/09 01:26:55;;;;;;;12.02;8.70;;;3.40;99.90;;;;;;5011965;28;20077;-65
2022/12/09 01:29:41;;;;;;;11.32;8.48;;;3.40;99.90;;;;;;5011135;28;20034;-64
2022/12/09 01:32:26;;;;;;;11.55;8.60;;;3.40;99.90;;;;;;5011316;28;20034;-64
2022/12/09 01:35:12;;;;;;;11.73;9.25;;;3.40;99.90;;;;;;4997158;28;20037;-64
2022/12/09 01:37:59;;;;;;;12.60;9.70;;;3.50;99.90;;;;;;5011346;28;20032;-64
2022/12/09 01:40:46;;;;;;;13.65;9.55;;;3.50;99.90;;;;;;5010768;28;20119;-64
2022/12/09 01:43:32;;;;;;;12.02;9.15;;;3.50;99.90;;;;;;5011247;28;20506;-65
2022/12/09 01:46:17;;;;;;;12.52;9.32;;;3.50;99.90;;;;;;4992298;28;20038;-64
2022/12/09 01:49:05;;;;;;;12.60;8.60;;;3.50;99.90;;;;;;4995416;28;20029;-64
2022/12/09 01:52:02;;;;;;;14.13;10.18;;;3.50;99.90;;;;;;4996337;28;20091;-64
2022/12/09 01:54:50;;;;;;;12.85;9.52;;;3.40;99.90;;;;;;5011281;28;20030;-65
2022/12/09 01:57:37;;;;;;;13.57;9.68;;;3.40;99.90;;;;;;5011036;28;20037;-64
2022/12/09 02:00:23;;;;;;;17.02;9.05;;;3.40;99.90;;;;;;5009646;28;20113;-64
2022/12/09 02:03:09;;;;;;;14.50;10.18;;;3.40;99.90;;;;;;5011081;28;20026;-64
2022/12/09 02:05:55;;;;;;;11.07;8.10;;;3.50;99.90;;;;;;4997265;28;20501;-64
2022/12/09 02:08:42;;;;;;;10.82;8.15;;;3.40;99.90;;;;;;5011030;28;20026;-62
2022/12/09 02:11:49;;;;;;;16.23;8.95;;;3.50;99.90;;;;;;5009539;28;20065;-64
2022/12/09 02:14:52;;;;;;;13.70;9.27;;;3.40;99.90;;;;;;4991816;28;20057;-64
2022/12/09 02:17:45;;;;;;;13.18;8.65;;;3.40;99.90;;;;;;4998612;28;20025;-63
2022/12/09 02:20:54;;;;;;;13.45;9.55;;;3.50;99.90;;;;;;5010252;28;20170;-65
2022/12/09 02:23:46;;;;;;;15.95;10.02;;;3.50;99.90;;;;;;5010164;28;20513;-63
2022/12/09 02:26:43;;;;;;;13.25;9.48;;;3.50;99.90;;;;;;5011152;28;20092;-64
2022/12/09 02:29:35;;;;;;;15.93;10.60;;;3.50;99.90;;;;;;4991229;28;20030;-63
2022/12/09 02:32:40;;;;;;;16.50;10.40;;;3.50;99.90;;;;;;4993797;28;20444;-63
2022/12/09 02:35:30;;;;;;;16.25;9.88;;;3.50;99.90;;;;;;5009644;28;20112;-66
2022/12/09 02:38:20;;;;;;;14.48;9.93;;;3.50;99.90;;;;;;5010156;28;20033;-64
2022/12/09 02:41:38;;;;;;;15.45;10.23;;;3.50;99.90;;;;;;5008735;28;20376;-63
2022/12/09 02:44:25;;;;;;;15.48;9.70;;;3.50;99.90;;;;;;5010610;28;20034;-63
2022/12/09 02:47:14;;;;;;;17.08;10.75;;;3.50;99.90;;;;;;4991052;28;20034;-65
2022/12/09 02:50:04;;;;;;;14.73;10.32;;;3.50;99.90;;;;;;4991444;28;20036;-64
2022/12/09 02:52:52;;;;;;;14.50;9.90;;;3.40;99.90;;;;;;5010221;28;20037;-64
2022/12/09 02:55:41;;;;;;;13.68;10.27;;;3.40;99.90;;;;;;5010048;28;20018;-64
2022/12/09 02:58:27;;;;;;;13.38;9.23;;;3.40;99.90;;;;;;5010595;28;20065;-64
2022/12/09 03:01:36;;;;;;;14.95;10.05;;;3.30;99.90;;;;;;5009151;28;20085;-64
2022/12/09 03:04:27;;;;;;;17.35;11.48;;;3.30;99.90;;;;;;5010245;28;20016;-65
2022/12/09 03:07:29;;;;;;;15.98;10.50;;;3.30;99.90;;;;;;5009872;28;20105;-65
2022/12/09 03:10:26;;;;;;;16.63;9.63;;;3.30;99.90;;;;;;5009164;28;20037;-65
2022/12/09 03:13:20;;;;;;;13.77;9.65;;;3.30;99.90;;;;;;5010209;28;20494;-64
2022/12/09 03:16:16;;;;;;;15.25;9.75;;;3.30;99.90;;;;;;4995066;28;20038;-64
2022/12/09 03:19:09;;;;;;;14.02;10.75;;;3.30;99.90;;;;;;5009784;28;20022;-65
2022/12/09 03:22:00;;;;;;;18.25;10.23;;;3.30;99.90;;;;;;5009504;28;20502;-65
2022/12/09 03:25:03;;;;;;;14.52;10.52;;;3.30;99.90;;;;;;5010282;28;20398;-65
2022/12/09 03:28:05;;;;;;;16.98;12.20;;;3.20;99.90;;;;;;4991266;28;20034;-66
2022/12/09 03:30:53;;;;;;;16.95;11.02;;;3.30;99.90;;;;;;4992764;28;20061;-64
2022/12/09 03:33:41;;;;;;;16.10;11.05;;;3.40;99.90;;;;;;5010266;28;20085;-65
2022/12/09 03:36:32;;;;;;;17.55;11.25;;;3.40;99.90;;;;;;5012220;28;20034;-65
2022/12/09 03:39:24;;;;;;;16.33;11.02;;;3.40;99.90;;;;;;5014015;28;20076;-63
2022/12/09 03:42:17;;;;;;;16.75;11.45;;;3.30;99.90;;;;;;5012718;28;20517;-64
2022/12/09 03:45:10;;;;;;;17.50;11.77;;;3.30;99.90;;;;;;5014112;28;20462;-64
2022/12/09 03:47:56;;;;;;;18.27;12.02;;;3.30;99.90;;;;;;5012828;28;20490;-64
2022/12/09 03:51:04;;;;;;;16.33;12.30;;;3.30;99.90;;;;;;4992785;28;20058;-65
2022/12/09 03:54:00;;;;;;;20.98;13.15;;;3.40;99.90;;;;;;4997958;28;20044;-64
2022/12/09 03:56:52;;;;;;;17.25;11.25;;;3.40;99.90;;;;;;5012757;28;20164;-64
2022/12/09 03:59:38;;;;;;;18.88;11.73;;;3.40;99.90;;;;;;5012471;28;20034;-66
2022/12/09 04:02:24;;;;;;;18.55;12.50;;;3.40;99.90;;;;;;5013379;28;20026;-65
2022/12/09 04:05:11;;;;;;;21.73;12.60;;;3.40;99.90;;;;;;5013283;28;20034;-64
2022/12/09 04:07:57;;;;;;;17.00;11.68;;;3.30;99.90;;;;;;5013022;28;20454;-65
2022/12/09 04:10:43;;;;;;;21.83;12.90;;;3.30;99.90;;;;;;5011919;28;20446;-64
2022/12/09 04:13:29;;;;;;;20.88;13.27;;;3.30;99.90;;;;;;5012630;28;20034;-65
2022/12/09 04:16:15;;;;;;;20.92;13.75;;;3.30;99.90;;;;;;5012855;28;20061;-65
2022/12/09 04:19:01;;;;;;;23.65;14.13;;;3.30;99.90;;;;;;5012668;28;20174;-65
2022/12/09 04:21:46;;;;;;;19.70;13.43;;;3.30;99.90;;;;;;5012383;28;20022;-64
2022/12/09 04:24:32;;;;;;;21.92;13.93;;;3.20;99.90;;;;;;5012664;28;20235;-65
2022/12/09 04:27:18;;;;;;;22.05;14.38;;;3.10;99.90;;;;;;5012750;28;20048;-64
2022/12/09 04:30:05;;;;;;;26.88;15.55;;;3.00;99.90;;;;;;5011911;28;20030;-65
2022/12/09 04:32:51;;;;;;;24.30;15.65;;;3.00;99.90;;;;;;5013202;28;20022;-64
2022/12/09 04:35:37;;;;;;;25.65;15.15;;;3.00;99.90;;;;;;4999392;28;20113;-65
2022/12/09 04:38:23;;;;;;;22.42;14.38;;;3.00;99.90;;;;;;4992916;28;20479;-64
2022/12/09 04:41:09;;;;;;;23.98;14.73;;;3.00;99.90;;;;;;5010254;28;20445;-64
2022/12/09 04:43:55;;;;;;;26.00;14.95;;;3.10;99.90;;;;;;5009359;28;20629;-65
2022/12/09 04:46:41;;;;;;;24.92;15.77;;;3.20;99.90;;;;;;4993330;28;20056;-63
2022/12/09 04:49:27;;;;;;;26.25;15.77;;;3.00;99.90;;;;;;4979748;28;20062;-63
2022/12/09 04:52:16;;;;;;;29.42;16.15;;;3.00;99.90;;;;;;4996288;28;20037;-64
2022/12/09 04:55:02;;;;;;;25.23;14.73;;;3.10;99.90;;;;;;5019444;28;20062;-64
2022/12/09 04:57:48;;;;;;;36.45;21.63;;;3.10;99.90;;;;;;5024945;28;20030;-65
2022/12/09 05:00:34;;;;;;;41.97;23.48;;;3.20;99.90;;;;;;5025187;28;20026;-64
2022/12/09 05:03:20;;;;;;;33.75;19.10;;;3.30;99.90;;;;;;5025864;28;20754;-65
2022/12/09 05:06:10;;;;;;;27.73;16.20;;;3.30;99.90;;;;;;5025185;28;20534;-65
2022/12/09 05:08:56;;;;;;;24.27;15.05;;;3.30;99.90;;;;;;5027137;28;20030;-65
2022/12/09 05:11:42;;;;;;;26.38;15.23;;;3.40;99.90;;;;;;5018253;28;20030;-63
2022/12/09 05:14:28;;;;;;;24.58;14.40;;;3.40;99.90;;;;;;5012057;28;20022;-63
2022/12/09 05:17:14;;;;;;;30.45;16.48;;;3.40;99.90;;;;;;4994178;28;20407;-62
2022/12/09 05:20:04;;;;;;;30.85;17.48;;;3.40;99.90;;;;;;4995393;28;20608;-65
2022/12/09 05:22:50;;;;;;;35.38;18.85;;;3.40;99.90;;;;;;5011762;28;20037;-63
2022/12/09 05:25:36;;;;;;;33.45;19.30;;;3.40;99.90;;;;;;5012324;28;20030;-63
2022/12/09 05:28:22;;;;;;;33.95;18.35;;;3.30;99.90;;;;;;5011680;28;20034;-63
2022/12/09 05:31:13;;;;;;;33.95;18.88;;;3.20;99.90;;;;;;5011301;28;20022;-64
2022/12/09 05:33:59;;;;;;;32.45;19.25;;;3.20;99.90;;;;;;5012139;28;20122;-66
2022/12/09 05:36:45;;;;;;;49.40;27.50;;;3.20;99.90;;;;;;5011687;28;20034;-63
2022/12/09 05:39:31;;;;;;;38.20;21.80;;;3.20;99.90;;;;;;5011297;28;20037;-64
2022/12/09 05:42:17;;;;;;;38.35;21.48;;;3.30;99.90;;;;;;5011226;28;20506;-64
2022/12/09 05:45:03;;;;;;;38.83;21.13;;;3.30;99.90;;;;;;4996987;28;20057;-65
2022/12/09 05:47:49;;;;;;;36.55;20.42;;;3.30;99.90;;;;;;4983838;28;20030;-64
2022/12/09 05:50:35;;;;;;;43.72;22.05;;;3.30;99.90;;;;;;5011092;28;20068;-64
2022/12/09 05:53:21;;;;;;;37.28;22.40;;;3.30;99.90;;;;;;5011118;28;20087;-64
2022/12/09 05:56:07;;;;;;;41.92;23.50;;;3.30;99.90;;;;;;5011982;28;20030;-65
2022/12/09 05:58:54;;;;;;;42.05;23.10;;;3.30;99.90;;;;;;5010769;28;20116;-64
2022/12/09 06:01:40;;;;;;;41.08;23.23;;;3.40;99.90;;;;;;5010894;28;20514;-64
2022/12/09 06:04:26;;;;;;;42.78;23.00;;;3.30;99.90;;;;;;5010997;28;20030;-65
2022/12/09 06:07:11;;;;;;;44.38;22.42;;;3.30;99.90;;;;;;5011304;28;20037;-66
2022/12/09 06:09:57;;;;;;;38.17;22.15;;;3.40;99.90;;;;;;5010805;28;20033;-64
2022/12/09 06:12:43;;;;;;;40.92;22.05;;;3.40;99.90;;;;;;5011063;28;20026;-65
2022/12/09 06:15:29;;;;;;;40.00;21.63;;;3.40;99.90;;;;;;4991815;28;20099;-64
2022/12/09 06:18:15;;;;;;;39.70;21.75;;;3.40;99.90;;;;;;4978274;28;20022;-65
2022/12/09 06:21:09;;;;;;;35.80;20.73;;;3.40;99.90;;;;;;5009543;28;20073;-65
2022/12/09 06:23:56;;;;;;;44.65;23.65;;;3.40;99.90;;;;;;5011177;28;20504;-65
2022/12/09 06:26:42;;;;;;;40.35;22.77;;;3.40;99.90;;;;;;5009790;28;20037;-64
2022/12/09 06:29:28;;;;;;;44.80;23.52;;;3.50;99.90;;;;;;5010702;28;20037;-64
2022/12/09 06:32:13;;;;;;;45.42;23.67;;;3.50;99.90;;;;;;5010749;28;20022;-66
2022/12/09 06:34:59;;;;;;;42.90;23.77;;;3.40;99.90;;;;;;5010621;28;20116;-65
2022/12/09 06:37:45;;;;;;;43.58;24.38;;;3.50;99.90;;;;;;5010480;28;20101;-64
2022/12/09 06:40:31;;;;;;;45.05;24.08;;;3.40;99.90;;;;;;5009484;28;20033;-63
2022/12/09 06:43:17;;;;;;;41.00;23.40;;;3.40;99.90;;;;;;5010310;28;20030;-64
2022/12/09 06:46:13;;;;;;;40.83;23.13;;;3.40;99.90;;;;;;4991851;28;20026;-65
2022/12/09 06:48:59;;;;;;;40.80;23.33;;;3.30;99.90;;;;;;4995294;28;20064;-65
2022/12/09 06:51:45;;;;;;;43.83;24.05;;;3.30;99.90;;;;;;5009865;28;20414;-64
2022/12/09 06:54:31;;;;;;;37.35;22.73;;;3.20;99.90;;;;;;4992523;28;20022;-64
2022/12/09 06:57:17;;;;;;;45.85;25.38;;;3.20;99.90;;;;;;5009793;28;20096;-63
2022/12/09 07:00:04;;;;;;;47.08;24.92;;;3.20;99.90;;;;;;5009423;28;20109;-64
2022/12/09 07:02:52;;;;;;;41.10;24.98;;;3.20;99.90;;;;;;5010866;28;20026;-67
2022/12/09 07:05:38;;;;;;;43.28;24.65;;;3.10;99.90;;;;;;5009707;28;20041;-64
2022/12/09 07:08:24;;;;;;;43.58;25.33;;;3.10;99.90;;;;;;5023102;28;20026;-63
2022/12/09 07:11:10;;;;;;;42.70;23.83;;;3.10;99.90;;;;;;4998348;28;20064;-64
2022/12/09 07:13:56;;;;;;;42.83;23.40;;;3.20;99.90;;;;;;5014210;28;20029;-62
2022/12/09 07:16:42;;;;;;;40.83;23.65;;;3.20;99.90;;;;;;5014422;28;20135;-65
2022/12/09 07:19:29;;;;;;;40.78;22.80;;;3.20;99.90;;;;;;5013750;28;20033;-63
2022/12/09 07:22:15;;;;;;;41.35;23.77;;;3.20;99.90;;;;;;5014284;28;20142;-65
2022/12/09 07:25:01;;;;;;;42.13;23.23;;;3.10;99.90;;;;;;5013893;28;20034;-64
2022/12/09 07:27:47;;;;;;;39.35;22.98;;;3.20;99.90;;;;;;5006004;28;20061;-64
2022/12/09 07:30:35;;;;;;;40.47;22.70;;;3.20;99.90;;;;;;5013129;28;20022;-64
2022/12/09 07:33:21;;;;;;;42.25;22.98;;;3.20;99.90;;;;;;5013737;28;20088;-65
2022/12/09 07:36:07;;;;;;;40.53;22.27;;;3.30;99.90;;;;;;5013682;28;20038;-64
2022/12/09 07:38:55;;;;;;;41.85;22.85;;;3.20;99.90;;;;;;5013956;28;20033;-65
2022/12/09 07:41:41;;;;;;;47.28;25.65;;;3.20;99.90;;;;;;5013521;28;20056;-64
2022/12/09 07:44:27;;;;;;;40.35;22.48;;;3.20;99.90;;;;;;4999854;28;20080;-63
2022/12/09 07:47:13;;;;;;;43.10;23.88;;;3.20;99.90;;;;;;5013220;28;20040;-65
2022/12/09 07:49:59;;;;;;;46.28;25.38;;;3.20;99.90;;;;;;5012895;28;20102;-66
2022/12/09 07:52:45;;;;;;;41.63;23.52;;;3.30;99.90;;;;;;4999370;28;20033;-65
2022/12/09 07:55:32;;;;;;;43.35;23.00;;;3.30;99.90;;;;;;5013169;28;20033;-63
2022/12/09 07:58:18;;;;;;;42.33;23.38;;;3.30;99.90;;;;;;5013020;28;20088;-64
2022/12/09 08:01:08;;;;;;;40.55;23.88;;;3.30;99.90;;;;;;5012718;28;20026;-65
2022/12/09 08:03:55;;;;;;;43.88;23.67;;;3.30;99.90;;;;;;5011768;28;20551;-64
2022/12/09 08:06:41;;;;;;;43.85;24.65;;;3.40;99.90;;;;;;5013530;28;20038;-65
2022/12/09 08:09:27;;;;;;;39.22;23.60;;;3.40;99.90;;;;;;5013236;28;20072;-65
2022/12/09 08:12:13;;;;;;;41.28;25.23;;;3.40;99.90;;;;;;5012778;28;20041;-64
2022/12/09 08:14:59;;;;;;;44.63;25.90;;;3.40;99.90;;;;;;5012990;28;20026;-65
2022/12/09 08:17:45;;;;;;;41.50;23.38;;;3.50;99.90;;;;;;5012937;28;20032;-65
2022/12/09 08:20:31;;;;;;;43.40;24.65;;;3.50;99.90;;;;;;5012837;28;20026;-65
2022/12/09 08:23:17;;;;;;;45.17;24.65;;;3.60;99.90;;;;;;4997048;28;20106;-64
2022/12/09 08:26:03;;;;;;;43.53;23.90;;;3.60;99.90;;;;;;4999665;28;20035;-64
2022/12/09 08:28:55;;;;;;;45.47;24.38;;;3.50;99.90;;;;;;4999059;28;20057;-65
2022/12/09 08:31:42;;;;;;;43.80;25.75;;;3.60;99.90;;;;;;5013151;28;20571;-65
2022/12/09 08:34:28;;;;;;;47.88;25.42;;;3.60;99.90;;;;;;5012865;28;20037;-65
2022/12/09 08:37:14;;;;;;;47.97;25.42;;;3.60;99.90;;;;;;5012684;28;20056;-65
2022/12/09 08:40:00;;;;;;;45.97;24.08;;;3.50;99.90;;;;;;4999179;28;20473;-64
2022/12/09 08:42:46;;;;;;;46.08;24.67;;;3.50;99.90;;;;;;5012643;28;20498;-65
2022/12/09 08:45:35;;;;;;;45.90;25.48;;;3.50;99.90;;;;;;5013062;28;20033;-64
2022/12/09 08:48:24;;;;;;;45.28;24.50;;;3.50;99.90;;;;;;5012514;28;20029;-65
2022/12/09 08:51:11;;;;;;;42.85;24.63;;;3.50;99.90;;;;;;4998636;28;20034;-65
2022/12/09 08:53:58;;;;;;;47.33;24.55;;;3.50;99.90;;;;;;5012773;28;20113;-66
2022/12/09 08:56:46;;;;;;;48.60;23.48;;;3.50;99.90;;;;;;5012687;28;20418;-66
2022/12/09 08:59:31;;;;;;;48.10;25.27;;;3.40;99.90;;;;;;5012621;28;20045;-65
2022/12/09 09:02:18;;;;;;;45.78;24.35;;;3.40;99.90;;;;;;5012406;28;20044;-67
2022/12/09 09:05:07;;;;;;;47.67;25.00;;;3.40;99.90;;;;;;4985357;28;20069;-64
2022/12/09 09:07:53;;;;;;;49.25;25.27;;;3.40;99.90;;;;;;5012589;28;20100;-64
2022/12/09 09:10:39;;;;;;;48.15;24.40;;;3.50;99.90;;;;;;5011659;28;20473;-66
2022/12/09 09:13:25;;;;;;;45.70;25.77;;;3.50;99.90;;;;;;5012447;28;20044;-64
2022/12/09 09:16:15;;;;;;;47.03;23.85;;;3.50;99.90;;;;;;4997528;28;20198;-66
2022/12/09 09:19:04;;;;;;;44.28;24.15;;;3.50;99.90;;;;;;5012215;28;20029;-67
2022/12/09 09:21:51;;;;;;;41.50;23.15;;;3.50;99.90;;;;;;5012173;28;20398;-65
2022/12/09 09:24:37;;;;;;;40.15;23.20;;;3.50;99.90;;;;;;5012195;28;20021;-65
2022/12/09 09:27:23;;;;;;;43.28;23.50;;;3.60;99.90;;;;;;5011021;28;20057;-66
2022/12/09 09:30:09;;;;;;;39.30;23.00;;;3.60;99.90;;;;;;5011685;28;20062;-64
2022/12/09 09:32:57;;;;;;;40.30;22.13;;;3.60;99.90;;;;;;5009979;28;20034;-65
2022/12/09 09:35:43;;;;;;;35.47;20.73;;;3.70;99.90;;;;;;5011957;28;20099;-65
2022/12/09 09:38:32;;;;;;;35.90;20.92;;;3.70;99.90;;;;;;5008859;28;20418;-68
2022/12/09 09:41:37;;;;;;;39.67;22.33;;;3.70;99.90;;;;;;5010691;28;20053;-68
2022/12/09 09:44:26;;;;;;;37.70;22.13;;;3.70;99.90;;;;;;5010221;28;20022;-68
2022/12/09 09:47:18;;;;;;;39.22;23.15;;;3.70;99.90;;;;;;5010543;28;20060;-65
2022/12/09 09:50:08;;;;;;;35.55;20.40;;;3.50;99.90;;;;;;5010767;28;20041;-65
2022/12/09 09:52:55;;;;;;;41.42;22.40;;;3.50;99.90;;;;;;5009568;28;20079;-65
2022/12/09 09:55:46;;;;;;;36.67;21.70;;;3.40;99.90;;;;;;5011327;28;20109;-66
2022/12/09 09:58:40;;;;;;;38.47;21.45;;;3.40;99.90;;;;;;4997148;28;20032;-67
2022/12/09 10:01:35;;;;;;;36.15;22.08;;;3.30;99.90;;;;;;4997456;28;20057;-65
2022/12/09 10:04:42;;;;;;;39.60;22.70;;;3.10;99.90;;;;;;5012904;28;20650;-64
2022/12/09 10:07:43;;;;;;;36.15;20.85;;;3.10;99.90;;;;;;5010667;28;20449;-65
2022/12/09 10:10:53;;;;;;;36.63;21.27;;;3.20;99.90;;;;;;5011317;28;20072;-64
2022/12/09 10:13:44;;;;;;;31.90;19.52;;;3.30;99.90;;;;;;5012132;28;20162;-65
2022/12/09 10:16:48;;;;;;;33.63;20.38;;;3.20;99.90;;;;;;5011403;28;20108;-65
2022/12/09 10:19:38;;;;;;;29.95;18.90;;;3.20;99.90;;;;;;5011241;28;20026;-65
2022/12/09 10:22:29;;;;;;;30.92;19.38;;;3.30;99.90;;;;;;4997135;28;20064;-64
2022/12/09 10:25:28;;;;;;;28.48;17.42;;;3.40;99.90;;;;;;5011454;28;20118;-63
2022/12/09 10:28:22;;;;;;;29.13;18.08;;;3.40;99.90;;;;;;5010941;28;20610;-66
2022/12/09 10:31:10;;;;;;;27.90;17.15;;;3.40;99.90;;;;;;5011020;28;20026;-65
2022/12/09 10:33:56;;;;;;;28.58;17.70;;;3.50;99.90;;;;;;5010710;28;20037;-64
2022/12/09 10:36:43;;;;;;;27.55;16.52;;;3.50;99.90;;;;;;5011421;28;20022;-64
2022/12/09 10:39:30;;;;;;;27.13;17.75;;;3.60;99.90;;;;;;5010682;28;20022;-67
2022/12/09 10:45:20;;;;;;;31.50;18.23;;;3.60;99.90;;;;;;4993226;28;20022;-66
2022/12/09 10:48:26;;;;;;;28.08;18.40;;;3.70;99.90;;;;;;4992182;28;20100;-65
2022/12/09 10:51:14;;;;;;;;;;;3.70;99.90;;;;;;4997358;28;20034;-67
2022/12/09 10:54:05;;;;;;;30.83;19.08;;;3.80;99.90;;;;;;5023752;28;19948;-64
2022/12/09 10:57:00;;;;;;;30.50;19.77;;;3.70;99.90;;;;;;5009178;28;20062;-68
2022/12/09 11:00:06;;;;;;;31.77;20.98;;;3.70;99.90;;;;;;4992570;28;20579;-63
2022/12/09 11:02:54;;;;;;;31.25;21.48;;;3.90;99.90;;;;;;4992571;28;20105;-65
2022/12/09 11:05:41;;;;;;;28.85;20.02;;;4.10;99.90;;;;;;5009948;28;20552;-66
2022/12/09 11:08:27;;;;;;;29.48;20.27;;;4.00;99.90;;;;;;5009831;28;20038;-66
2022/12/09 11:11:13;;;;;;;28.05;18.17;;;3.90;99.90;;;;;;5009601;28;20387;-67
2022/12/09 11:14:00;;;;;;;28.30;18.92;;;3.80;99.90;;;;;;5009779;28;20542;-68
2022/12/09 11:16:46;;;;;;;27.83;17.83;;;3.70;99.90;;;;;;5007663;28;20040;-67
2022/12/09 11:19:36;;;;;;;27.70;17.80;;;3.70;99.90;;;;;;5007864;28;20018;-60
2022/12/09 11:22:37;;;;;;;28.90;18.60;;;3.70;99.90;;;;;;5009436;28;20087;-56
2022/12/09 11:25:28;;;;;;;27.05;18.42;;;3.70;99.90;;;;;;5010238;28;20453;-56
2022/12/09 11:28:14;;;;;;;29.85;19.33;;;3.50;99.90;;;;;;5009955;28;20026;-58
2022/12/09 11:31:06;;;;;;;27.90;18.77;;;3.60;99.90;;;;;;5007518;28;20033;-57
2022/12/09 11:33:55;;;;;;;25.00;17.55;;;3.70;99.90;;;;;;5009679;28;20118;-58
2022/12/09 11:36:46;;;;;;;26.00;17.08;;;3.80;99.90;;;;;;5010111;28;20034;-58
2022/12/09 11:39:34;;;;;;;28.17;18.13;;;3.80;99.90;;;;;;5009175;28;20053;-57
2022/12/09 11:42:21;;;;;;;25.77;18.05;;;3.80;99.90;;;;;;5009416;28;20022;-58
2022/12/09 11:45:21;;;;;;;26.08;17.90;;;3.60;99.90;;;;;;5009276;28;20037;-59
2022/12/09 11:48:26;;;;;;;28.02;18.17;;;3.50;99.90;;;;;;5008403;28;20394;-58
2022/12/09 11:52:00;;;;;;;27.52;18.23;;;3.60;99.90;;;;;;4999943;28;20041;-57
2022/12/09 11:55:07;;;;;;;29.63;18.77;;;3.60;99.90;;;;;;5008398;28;20077;-60
2022/12/09 11:58:01;;;;;;;29.55;20.27;;;3.60;99.90;;;;;;5012750;28;20030;-56
2022/12/09 12:00:58;;;;;;;28.58;19.17;;;3.50;99.90;;;;;;5006796;28;20033;-56
2022/12/09 12:04:03;;;;;;;27.92;19.38;;;3.50;99.90;;;;;;5015606;28;20021;-59
2022/12/09 12:06:58;;;;;;;29.65;18.58;;;3.60;99.90;;;;;;5010822;28;20061;-57
2022/12/09 12:09:54;;;;;;;25.80;17.37;;;3.70;99.90;;;;;;5009200;28;20038;-59
2022/12/09 12:12:59;;;;;;;27.90;19.08;;;3.70;99.90;;;;;;5009895;28;20280;-56
2022/12/09 12:15:47;;;;;;;31.73;19.88;;;3.70;99.90;;;;;;5012073;28;20029;-55
2022/12/09 12:18:43;;;;;;;31.70;20.65;;;3.70;99.90;;;;;;5009371;28;20025;-57
2022/12/09 12:21:50;;;;;;;30.60;19.35;;;3.60;99.90;;;;;;5010882;28;20115;-57
2022/12/09 12:24:48;;;;;;;31.00;20.80;;;3.60;99.90;;;;;;5013703;28;20026;-60
2022/12/09 12:28:16;;;;;;;32.75;20.08;;;3.60;99.90;;;;;;5017192;28;20520;-60
2022/12/09 12:31:27;;;;;;;29.95;19.15;;;3.70;99.90;;;;;;4998893;28;20033;-58
2022/12/09 12:34:50;;;;;;;32.55;19.90;;;3.90;99.90;;;;;;5018637;28;20451;-59
2022/12/09 12:37:42;;;;;;;28.13;19.15;;;4.10;99.90;;;;;;5012059;28;20453;-58
2022/12/09 12:40:36;;;;;;;30.40;20.30;;;4.20;99.90;;;;;;5019181;28;20128;-60
2022/12/09 12:46:43;;;;;;;32.42;21.42;;;4.30;99.90;;;;;;5029237;28;20030;-59
2022/12/09 12:49:38;;;;;;;33.45;21.60;;;4.30;99.90;;;;;;5004727;28;20030;-57
2022/12/09 12:52:53;;;;;;;31.55;21.45;;;4.20;99.90;;;;;;5011882;28;20164;-57
2022/12/09 12:55:46;;;;;;;33.00;20.52;;;4.30;99.90;;;;;;5011811;28;20033;-55
2022/12/09 12:58:37;;;;;;;33.63;22.15;;;4.30;99.90;;;;;;5012410;28;20113;-58
2022/12/09 13:01:33;;;;;;;33.45;22.30;;;4.30;99.90;;;;;;5024203;28;20109;-55
2022/12/09 13:04:27;;;;;;;34.63;22.60;;;4.30;99.90;;;;;;5012980;28;20148;-61
2022/12/09 13:07:37;;;;;;;37.47;23.50;;;4.10;99.90;;;;;;5009521;28;20038;-56
2022/12/09 13:10:33;;;;;;;35.28;24.05;;;3.90;99.90;;;;;;5017025;28;20113;-59
2022/12/09 13:13:27;;;;;;;37.88;24.00;;;3.90;99.90;;;;;;5010907;28;20108;-57
2022/12/09 13:16:26;;;;;;;34.60;22.13;;;3.80;99.90;;;;;;5010920;28;20414;-59
2022/12/09 13:19:40;;;;;;;35.40;23.88;;;3.70;99.90;;;;;;5012195;28;20120;-58
2022/12/09 13:22:35;;;;;;;35.50;23.73;;;3.60;99.90;;;;;;5011344;28;20522;-55
2022/12/09 13:25:57;;;;;;;37.72;24.98;;;3.60;99.90;;;;;;5011121;28;20487;-60
2022/12/09 13:28:46;;;;;;;38.45;26.00;;;3.60;99.90;;;;;;5007306;28;20116;-60
2022/12/09 13:31:35;;;;;;;37.63;26.40;;;3.50;99.90;;;;;;5003985;28;20561;-59
2022/12/09 13:34:30;;;;;;;39.78;26.45;;;3.40;99.90;;;;;;4994153;28;20034;-58
2022/12/09 13:37:37;;;;;;;36.88;24.63;;;3.40;99.90;;;;;;5011083;28;20022;-59
2022/12/09 13:40:23;;;;;;;40.78;25.83;;;3.30;99.90;;;;;;5009832;28;20048;-59
2022/12/09 13:43:15;;;;;;;37.47;26.65;;;3.30;99.90;;;;;;5011050;28;20143;-57
2022/12/09 13:46:01;;;;;;;38.80;25.33;;;3.30;99.90;;;;;;5010918;28;20030;-59
2022/12/09 13:48:47;;;;;;;38.55;25.08;;;3.30;99.90;;;;;;5010923;28;20025;-59
2022/12/09 13:51:45;;;;;;;39.20;26.08;;;3.40;99.90;;;;;;5009362;28;20038;-57
2022/12/09 13:54:31;;;;;;;38.63;24.70;;;3.30;99.90;;;;;;5010287;28;20509;-58
2022/12/09 13:57:40;;;;;;;34.05;24.00;;;3.30;99.90;;;;;;5008588;28;20129;-59
2022/12/09 14:00:26;;;;;;;35.95;23.85;;;3.30;99.90;;;;;;5009758;28;20041;-56
2022/12/09 14:03:29;;;;;;;35.80;22.67;;;3.30;99.90;;;;;;5011075;28;20022;-59
2022/12/09 14:06:24;;;;;;;33.42;23.05;;;3.40;99.90;;;;;;4992108;28;20030;-59
2022/12/09 14:09:16;;;;;;;31.15;22.17;;;3.40;99.90;;;;;;4996964;28;20518;-60
2022/12/09 14:12:13;;;;;;;33.55;22.55;;;3.40;99.90;;;;;;5011380;28;20113;-57
2022/12/09 14:15:20;;;;;;;36.03;23.67;;;3.40;99.90;;;;;;5011076;28;20402;-54
2022/12/09 14:18:27;;;;;;;33.20;22.83;;;3.40;99.90;;;;;;5011144;28;20026;-54
2022/12/09 14:21:16;;;;;;;38.67;23.50;;;3.40;99.90;;;;;;4976378;28;20101;-49
2022/12/09 14:24:10;;;;;;;36.08;23.02;;;3.40;99.90;;;;;;4994601;28;20040;-52
2022/12/09 14:26:58;;;;;;;38.85;23.27;;;3.50;99.90;;;;;;5014761;28;20037;-53
2022/12/09 14:29:47;;;;;;;32.15;21.48;;;3.60;99.90;;;;;;5010215;28;20471;-50
2022/12/09 14:32:54;;;;;;;31.15;20.45;;;3.70;99.90;;;;;;5010879;28;20076;-50
2022/12/09 14:35:47;;;;;;;29.80;20.88;;;3.70;99.90;;;;;;5010732;28;20041;-52
2022/12/09 14:38:33;;;;;;;33.72;22.05;;;3.60;99.90;;;;;;5010926;28;20081;-54
2022/12/09 14:41:47;;;;;;;32.85;21.42;;;3.50;99.90;;;;;;5008979;28;20176;-51
2022/12/09 14:44:59;;;;;;;31.98;20.88;;;3.40;99.90;;;;;;5010148;28;20025;-54